createdAt,value
2018-09-13T00:01:39.957Z,6.00
2018-09-13T00:07:29.578Z,5.33
2018-09-13T00:10:03.689Z,5.63
2018-09-13T00:12:37.793Z,5.80
2018-09-13T00:15:07.410Z,5.50
2018-09-13T00:17:36.304Z,5.40
2018-09-13T00:20:05.323Z,5.47
2018-09-13T00:22:34.104Z,5.33
2018-09-13T00:25:02.914Z,5.97
2018-09-13T00:27:31.748Z,5.40
2018-09-13T00:30:00.493Z,5.47
2018-09-13T00:32:29.251Z,5.77
2018-09-13T00:34:58.034Z,5.27
2018-09-13T00:37:26.838Z,4.70
2018-09-13T00:39:55.656Z,4.70
2018-09-13T00:42:24.481Z,4.93
2018-09-13T00:44:53.250Z,4.43
2018-09-13T00:47:23.403Z,4.37
2018-09-13T00:49:52.188Z,4.50
2018-09-13T00:52:20.917Z,4.77
2018-09-13T00:54:49.717Z,3.97
2018-09-13T00:57:18.415Z,4.20
2018-09-13T00:59:47.128Z,4.60
2018-09-13T01:02:16.103Z,4.23
2018-09-13T01:04:45.298Z,4.10
2018-09-13T01:07:14.043Z,4.43
2018-09-13T01:09:42.686Z,5.00
2018-09-13T01:12:11.348Z,4.43
2018-09-13T01:14:39.978Z,5.33
2018-09-13T01:17:08.636Z,5.00
2018-09-13T01:19:37.285Z,4.80
2018-09-13T01:22:06.217Z,4.90
2018-09-13T01:24:35.613Z,5.10
2018-09-13T01:27:04.481Z,4.90
2018-09-13T01:29:33.266Z,4.83
2018-09-13T01:32:02.206Z,4.67
2018-09-13T01:34:30.982Z,5.00
2018-09-13T01:37:00.349Z,4.97
2018-09-13T01:39:29.801Z,5.27
2018-09-13T01:41:58.581Z,5.60
2018-09-13T01:44:27.422Z,5.00
2018-09-13T01:46:56.161Z,4.90
2018-09-13T01:49:24.898Z,4.47
2018-09-13T01:51:53.584Z,5.13
2018-09-13T01:54:22.274Z,4.93
2018-09-13T01:56:51.008Z,4.77
2018-09-13T01:59:19.786Z,4.90
2018-09-13T02:01:48.626Z,4.83
2018-09-13T02:04:17.515Z,4.47
2018-09-13T02:06:46.306Z,5.00
2018-09-13T02:09:15.014Z,5.13
2018-09-13T02:11:43.773Z,5.23
2018-09-13T02:14:12.544Z,5.27
2018-09-13T02:16:41.376Z,5.13
2018-09-13T02:19:10.109Z,5.30
2018-09-13T02:21:44.376Z,5.90
2018-09-13T02:24:13.138Z,5.87
2018-09-13T02:26:41.935Z,5.60
2018-09-13T02:29:10.698Z,5.63
2018-09-13T02:31:39.554Z,5.57
2018-09-13T02:34:08.278Z,5.57
2018-09-13T02:42:30.338Z,5.77
2018-09-13T02:56:46.408Z,5.40
2018-09-13T02:59:31.845Z,5.63
2018-09-13T03:05:14.243Z,5.47
2018-09-13T03:08:05.264Z,5.50
2018-09-13T03:16:27.162Z,5.77
2018-09-13T03:19:07.129Z,5.80
2018-09-13T03:24:49.255Z,5.33
2018-09-13T03:30:31.516Z,5.60
2018-09-13T03:47:27.113Z,6.17
2018-09-13T03:58:40.443Z,6.23
2018-09-13T04:04:11.673Z,5.60
2018-09-13T04:12:39.979Z,5.50
2018-09-13T04:21:08.341Z,6.30
2018-09-13T04:23:53.971Z,6.00
2018-09-13T04:38:09.527Z,5.80
2018-09-13T04:52:19.880Z,5.87
2018-09-13T04:55:05.483Z,6.00
2018-09-13T05:12:24.098Z,6.60
2018-09-13T05:18:06.537Z,5.87
2018-09-13T05:20:52.138Z,6.03
2018-09-13T05:26:23.119Z,5.70
2018-09-13T05:35:07.866Z,5.90
2018-09-13T05:37:58.903Z,6.27
2018-09-13T05:46:10.516Z,6.07
2018-09-13T05:51:41.610Z,6.17
2018-09-13T05:54:32.806Z,6.00
2018-09-13T06:05:46.661Z,6.27
2018-09-13T06:08:32.238Z,5.53
2018-09-13T06:20:02.665Z,5.57
2018-09-13T06:22:31.505Z,5.40
2018-09-13T06:25:00.381Z,5.60
2018-09-13T06:27:29.193Z,5.37
2018-09-13T06:29:58.013Z,6.03
2018-09-13T06:32:26.964Z,5.80
2018-09-13T06:34:55.821Z,5.30
2018-09-13T06:37:24.691Z,5.97
2018-09-13T06:39:53.419Z,5.20
2018-09-13T06:42:22.246Z,5.57
2018-09-13T06:44:51.011Z,5.77
2018-09-13T06:47:20.584Z,6.00
2018-09-13T06:49:49.335Z,5.53
2018-09-13T06:52:18.064Z,6.07
2018-09-13T06:54:46.759Z,5.60
2018-09-13T06:57:15.417Z,6.23
2018-09-13T06:59:44.119Z,5.50
2018-09-13T07:02:12.867Z,5.70
2018-09-13T07:04:41.464Z,5.97
2018-09-13T07:07:10.169Z,5.70
2018-09-13T07:09:38.789Z,6.33
2018-09-13T07:12:07.451Z,6.10
2018-09-13T07:14:36.025Z,6.73
2018-09-13T07:17:04.628Z,6.80
2018-09-13T07:19:33.211Z,6.57
2018-09-13T07:22:07.320Z,7.07
2018-09-13T07:24:35.938Z,6.20
2018-09-13T07:27:04.640Z,8.67
2018-09-13T07:29:33.326Z,53.50
2018-09-13T07:32:01.985Z,29.83
2018-09-13T07:34:30.633Z,11.73
2018-09-13T07:36:59.243Z,6.83
2018-09-13T07:39:27.950Z,5.67
2018-09-13T07:41:56.605Z,5.60
2018-09-13T07:44:25.296Z,5.73
2018-09-13T07:46:53.916Z,5.50
2018-09-13T07:49:22.518Z,8.90
2018-09-13T07:51:51.848Z,9.40
2018-09-13T07:54:20.373Z,11.47
2018-09-13T07:56:48.988Z,12.70
2018-09-13T07:59:17.733Z,12.47
2018-09-13T08:01:46.288Z,12.07
2018-09-13T08:04:14.822Z,15.73
2018-09-13T08:06:43.395Z,17.03
2018-09-13T08:09:12.930Z,15.00
2018-09-13T08:11:41.811Z,12.20
2018-09-13T08:14:10.870Z,13.13
2018-09-13T08:16:39.555Z,12.20
2018-09-13T08:19:08.180Z,11.67
2018-09-13T08:21:36.795Z,11.83
2018-09-13T08:24:05.328Z,10.67
2018-09-13T08:26:33.908Z,9.13
2018-09-13T08:29:02.476Z,10.00
2018-09-13T08:31:31.028Z,9.07
2018-09-13T08:33:59.642Z,8.80
2018-09-13T08:36:28.248Z,11.10
2018-09-13T08:38:56.893Z,12.13
2018-09-13T08:41:25.708Z,9.90
2018-09-13T08:43:54.423Z,12.93
2018-09-13T08:46:23.033Z,7.77
2018-09-13T08:48:52.074Z,7.17
2018-09-13T08:51:21.091Z,7.73
2018-09-13T08:53:49.820Z,7.87
2018-09-13T08:56:18.472Z,10.10
2018-09-13T08:58:47.198Z,9.03
2018-09-13T09:01:15.866Z,9.10
2018-09-13T09:03:44.541Z,9.80
2018-09-13T09:06:13.237Z,10.73
2018-09-13T09:08:41.925Z,12.50
2018-09-13T09:11:10.625Z,14.00
2018-09-13T09:13:39.655Z,14.97
2018-09-13T09:16:08.308Z,13.30
2018-09-13T09:18:37.060Z,12.90
2018-09-13T09:21:05.703Z,13.72
2018-09-13T09:23:40.013Z,15.37
2018-09-13T09:26:08.607Z,16.25
2018-09-13T09:28:37.153Z,13.95
2018-09-13T09:31:05.763Z,10.72
2018-09-13T09:33:34.297Z,12.75
2018-09-13T09:36:02.836Z,14.58
2018-09-13T09:38:31.481Z,6.93
2018-09-13T09:41:00.021Z,8.48
2018-09-13T09:43:28.543Z,9.28
2018-09-13T09:45:57.208Z,11.55
2018-09-13T09:48:26.024Z,11.78
2018-09-13T09:50:54.661Z,11.75
2018-09-13T09:53:23.388Z,11.50
2018-09-13T09:55:52.688Z,19.10
2018-09-13T09:58:21.415Z,12.13
2018-09-13T10:00:55.668Z,10.30
2018-09-13T10:03:24.360Z,8.30
2018-09-13T10:05:53.101Z,8.73
2018-09-13T10:08:21.861Z,9.58
2018-09-13T10:10:50.545Z,12.03
2018-09-13T10:13:19.401Z,10.00
2018-09-13T10:15:53.525Z,10.60
2018-09-13T10:18:27.773Z,8.53
2018-09-13T10:21:01.954Z,8.40
2018-09-13T10:23:36.224Z,6.85
2018-09-13T10:26:10.193Z,7.25
2018-09-13T10:29:43.965Z,7.00
2018-09-13T10:32:18.125Z,6.87
2018-09-13T10:34:52.486Z,6.47
2018-09-13T10:37:26.833Z,6.72
2018-09-13T10:40:01.050Z,5.80
2018-09-13T10:42:35.036Z,5.90
2018-09-13T10:45:09.218Z,6.80
2018-09-13T10:47:43.375Z,7.00
2018-09-13T10:50:17.839Z,6.57
2018-09-13T10:52:50.022Z,6.45
2018-09-13T10:55:18.807Z,5.90
2018-09-13T10:57:47.501Z,6.30
2018-09-13T11:00:16.829Z,5.73
2018-09-13T11:02:45.416Z,5.70
2018-09-13T11:05:14.136Z,5.70
2018-09-13T11:07:42.863Z,6.07
2018-09-13T11:10:11.518Z,5.80
2018-09-13T11:12:47.195Z,5.87
2018-09-13T11:15:24.329Z,7.20
2018-09-13T11:17:52.965Z,7.30
2018-09-13T11:20:21.688Z,6.62
2018-09-13T11:22:53.173Z,6.62
2018-09-13T11:25:22.548Z,6.23
2018-09-13T11:27:51.261Z,6.47
2018-09-13T11:30:19.895Z,6.92
2018-09-13T11:32:48.768Z,7.53
2018-09-13T11:35:17.310Z,7.00
2018-09-13T11:37:46.013Z,7.33
2018-09-13T11:40:15.136Z,7.00
2018-09-13T11:42:45.288Z,8.45
2018-09-13T11:45:14.220Z,8.03
2018-09-13T11:47:42.873Z,7.95
2018-09-13T11:50:12.315Z,6.47
2018-09-13T11:52:41.073Z,6.20
2018-09-13T11:55:09.820Z,5.83
2018-09-13T11:57:38.576Z,6.33
2018-09-13T12:00:07.723Z,5.92
2018-09-13T12:02:36.405Z,6.05
2018-09-13T12:05:05.215Z,6.15
2018-09-13T12:07:33.935Z,5.55
2018-09-13T12:10:02.528Z,5.97
2018-09-13T12:12:31.108Z,6.50
2018-09-13T12:15:00.343Z,6.15
2018-09-13T12:17:28.968Z,6.70
2018-09-13T12:19:57.581Z,5.80
2018-09-13T12:22:26.283Z,6.55
2018-09-13T12:25:01.449Z,6.53
2018-09-13T12:27:32.018Z,8.05
2018-09-13T12:30:01.056Z,6.67
2018-09-13T12:32:29.886Z,5.70
2018-09-13T12:34:59.879Z,5.92
2018-09-13T12:37:28.588Z,7.05
2018-09-13T12:39:58.554Z,6.00
2018-09-13T12:42:27.213Z,5.42
2018-09-13T12:44:55.940Z,5.45
2018-09-13T12:47:24.781Z,5.90
2018-09-13T12:49:57.783Z,5.60
2018-09-13T12:52:26.787Z,5.95
2018-09-13T12:54:55.634Z,5.62
2018-09-13T12:57:24.376Z,5.13
2018-09-13T12:59:53.226Z,5.42
2018-09-13T13:02:22.024Z,4.60
2018-09-13T13:04:50.849Z,5.30
2018-09-13T13:07:19.596Z,5.50
2018-09-13T13:09:48.493Z,5.37
2018-09-13T13:12:17.301Z,5.50
2018-09-13T13:14:46.081Z,5.30
2018-09-13T13:17:14.721Z,7.78
2018-09-13T13:19:43.450Z,14.25
2018-09-13T13:22:12.033Z,31.93
2018-09-13T13:24:40.840Z,20.52
2018-09-13T13:27:09.560Z,13.70
2018-09-13T13:29:38.324Z,7.25
2018-09-13T13:32:07.371Z,5.60
2018-09-13T13:34:36.514Z,4.75
2018-09-13T13:37:05.121Z,4.87
2018-09-13T13:39:33.874Z,4.80
2018-09-13T13:42:02.441Z,5.28
2018-09-13T13:44:36.798Z,4.83
2018-09-13T13:47:05.608Z,5.00
2018-09-13T13:49:34.419Z,4.90
2018-09-13T13:52:03.171Z,5.17
2018-09-13T13:54:31.979Z,6.58
2018-09-13T13:57:06.066Z,9.08
2018-09-13T13:59:34.808Z,8.78
2018-09-13T14:02:03.648Z,7.25
2018-09-13T14:04:32.418Z,5.95
2018-09-13T14:07:01.206Z,5.95
2018-09-13T14:09:29.909Z,6.50
2018-09-13T14:11:58.554Z,24.98
2018-09-13T14:14:27.616Z,27.37
2018-09-13T14:16:56.241Z,21.30
2018-09-13T14:19:25.360Z,16.12
2018-09-13T14:21:54.093Z,25.00
2018-09-13T14:24:23.025Z,23.98
2018-09-13T14:26:51.696Z,7.50
2018-09-13T14:29:20.426Z,4.50
2018-09-13T14:31:49.308Z,4.72
2018-09-13T14:34:18.481Z,4.58
2018-09-13T14:36:47.226Z,3.98
2018-09-13T14:39:16.833Z,4.60
2018-09-13T14:41:45.954Z,4.70
2018-09-13T14:44:14.609Z,4.58
2018-09-13T14:46:43.249Z,5.20
2018-09-13T14:49:11.868Z,4.87
2018-09-13T14:51:40.468Z,4.20
2018-09-13T14:54:09.074Z,4.40
2018-09-13T14:56:37.674Z,4.80
2018-09-13T14:59:06.467Z,4.60
2018-09-13T15:01:35.074Z,4.45
2018-09-13T15:04:03.703Z,4.28
2018-09-13T15:06:32.334Z,4.33
2018-09-13T15:09:00.958Z,4.67
2018-09-13T15:11:29.596Z,4.70
2018-09-13T15:13:58.181Z,3.95
2018-09-13T15:16:26.848Z,4.12
2018-09-13T15:18:55.623Z,3.98
2018-09-13T15:21:24.368Z,3.98
2018-09-13T15:23:53.113Z,4.10
2018-09-13T15:26:22.528Z,4.20
2018-09-13T15:28:51.276Z,3.65
2018-09-13T15:31:19.929Z,3.70
2018-09-13T15:33:48.608Z,4.00
2018-09-13T15:36:17.265Z,4.20
2018-09-13T15:38:46.130Z,3.77
2018-09-13T15:41:14.903Z,4.30
2018-09-13T15:47:01.481Z,4.00
2018-09-13T15:49:30.268Z,3.95
2018-09-13T15:51:59.031Z,4.00
2018-09-13T15:54:27.729Z,3.62
2018-09-13T15:56:56.385Z,3.95
2018-09-13T15:59:25.139Z,3.87
2018-09-13T16:01:53.900Z,3.90
2018-09-13T16:04:22.628Z,4.12
2018-09-13T16:06:51.285Z,4.17
2018-09-13T16:09:20.206Z,4.00
2018-09-13T16:11:48.975Z,4.47
2018-09-13T16:14:17.795Z,4.35
2018-09-13T16:16:46.619Z,3.98
2018-09-13T16:19:15.516Z,3.90
2018-09-13T16:21:44.483Z,4.03
2018-09-13T16:24:13.206Z,4.37
2018-09-13T16:26:42.251Z,4.60
2018-09-13T16:29:16.438Z,4.17
2018-09-13T16:31:45.233Z,4.53
2018-09-13T16:34:14.011Z,4.30
2018-09-13T16:36:54.594Z,4.30
2018-09-13T16:39:34.147Z,4.70
2018-09-13T16:42:08.524Z,5.20
2018-09-13T16:44:42.613Z,5.00
2018-09-13T16:47:17.097Z,5.10
2018-09-13T16:49:45.863Z,5.05
2018-09-13T16:52:14.640Z,5.00
2018-09-13T16:54:43.476Z,5.10
2018-09-13T16:57:12.266Z,5.10
2018-09-13T16:59:41.056Z,5.35
2018-09-13T17:02:09.947Z,4.97
2018-09-13T17:04:38.768Z,4.90
2018-09-13T17:07:08.263Z,5.25
2018-09-13T17:09:37.175Z,5.20
2018-09-13T17:12:06.145Z,5.30
2018-09-13T17:14:35.331Z,5.87
2018-09-13T17:17:04.502Z,5.83
2018-09-13T17:19:33.315Z,5.65
2018-09-13T17:22:02.250Z,12.13
2018-09-13T17:24:31.209Z,15.27
2018-09-13T17:27:00.034Z,15.10
2018-09-13T17:29:28.872Z,8.97
2018-09-13T17:31:57.733Z,10.08
2018-09-13T17:34:26.463Z,11.00
2018-09-13T17:36:55.155Z,9.47
2018-09-13T17:39:23.910Z,8.57
2018-09-13T17:41:52.570Z,9.37
2018-09-13T17:44:21.148Z,9.18
2018-09-13T17:46:49.791Z,9.20
2018-09-13T17:49:18.425Z,9.10
2018-09-13T17:51:47.115Z,9.20
2018-09-13T17:54:15.910Z,8.53
2018-09-13T17:56:45.468Z,8.80
2018-09-13T17:59:14.270Z,8.97
2018-09-13T18:01:43.208Z,8.57
2018-09-13T18:04:12.083Z,9.20
2018-09-13T18:06:40.945Z,7.43
2018-09-13T18:09:10.699Z,8.30
2018-09-13T18:11:39.519Z,8.10
2018-09-13T18:14:08.606Z,6.78
2018-09-13T18:16:37.413Z,6.10
2018-09-13T18:19:06.250Z,5.93
2018-09-13T18:21:36.018Z,5.53
2018-09-13T18:24:04.948Z,6.70
2018-09-13T18:26:34.056Z,6.40
2018-09-13T18:29:08.496Z,9.80
2018-09-13T18:31:37.511Z,9.70
2018-09-13T18:34:06.787Z,9.30
2018-09-13T18:36:37.034Z,9.20
2018-09-13T18:39:09.151Z,10.83
2018-09-13T18:41:38.041Z,8.20
2018-09-13T18:44:07.037Z,8.07
2018-09-13T18:46:35.929Z,7.60
2018-09-13T18:49:05.272Z,8.33
2018-09-13T18:51:34.194Z,6.60
2018-09-13T18:54:03.347Z,6.60
2018-09-13T18:56:32.949Z,6.27
2018-09-13T18:59:01.696Z,6.10
2018-09-13T19:01:30.441Z,6.77
2018-09-13T19:03:59.169Z,6.67
2018-09-13T19:06:28.686Z,6.83
2018-09-13T19:08:57.581Z,5.97
2018-09-13T19:11:26.359Z,5.97
2018-09-13T19:13:55.014Z,6.37
2018-09-13T19:16:23.852Z,5.80
2018-09-13T19:18:52.759Z,5.67
2018-09-13T19:21:21.644Z,5.97
2018-09-13T19:23:50.381Z,6.10
2018-09-13T19:26:19.263Z,6.00
2018-09-13T19:28:47.947Z,6.40
2018-09-13T19:31:22.574Z,6.17
2018-09-13T19:33:51.806Z,6.90
2018-09-13T19:36:21.287Z,6.60
2018-09-13T19:38:50.767Z,6.53
2018-09-13T19:41:19.787Z,7.00
2018-09-13T19:43:49.131Z,7.13
2018-09-13T19:46:18.680Z,7.70
2018-09-13T19:48:47.987Z,8.03
2018-09-13T19:51:17.827Z,7.33
2018-09-13T19:53:46.621Z,7.90
2018-09-13T19:56:16.610Z,7.53
2018-09-13T19:58:46.192Z,7.33
2018-09-13T20:01:15.328Z,7.97
2018-09-13T20:03:44.337Z,7.47
2018-09-13T20:06:14.158Z,7.13
2018-09-13T20:08:42.949Z,6.67
2018-09-13T20:11:11.819Z,7.07
2018-09-13T20:13:40.933Z,6.50
2018-09-13T20:16:09.676Z,6.80
2018-09-13T20:18:43.852Z,7.53
2018-09-13T20:21:18.940Z,6.93
2018-09-13T20:23:47.941Z,5.93
2018-09-13T20:26:22.264Z,7.70
2018-09-13T20:28:52.668Z,6.53
2018-09-13T20:31:21.965Z,6.73
2018-09-13T20:33:56.058Z,6.43
2018-09-13T20:36:25.711Z,5.80
2018-09-13T20:38:55.263Z,6.00
2018-09-13T20:41:29.610Z,6.17
2018-09-13T20:43:58.753Z,6.00
2018-09-13T20:46:28.608Z,6.00
2018-09-13T20:49:02.966Z,6.30
2018-09-13T20:51:32.366Z,6.33
2018-09-13T20:54:01.189Z,6.20
2018-09-13T20:56:30.039Z,6.97
2018-09-13T20:58:59.688Z,6.70
2018-09-13T21:01:28.506Z,6.40
2018-09-13T21:03:57.251Z,6.03
2018-09-13T21:06:25.873Z,6.07
2018-09-13T21:08:55.188Z,6.70
2018-09-13T21:11:23.961Z,6.00
2018-09-13T21:13:53.319Z,5.90
2018-09-13T21:16:22.056Z,5.63
2018-09-13T21:18:50.892Z,6.07
2018-09-13T21:21:20.238Z,5.33
2018-09-13T21:23:49.326Z,5.80
2018-09-13T21:26:18.192Z,6.10
2018-09-13T21:28:47.243Z,5.67
2018-09-13T21:31:16.123Z,6.13
2018-09-13T21:33:44.954Z,5.67
2018-09-13T21:36:13.767Z,5.73
2018-09-13T21:38:44.987Z,6.07
2018-09-13T21:41:14.760Z,5.90
2018-09-13T21:43:44.282Z,6.57
2018-09-13T21:46:14.694Z,5.80
2018-09-13T21:48:43.961Z,6.70
2018-09-13T21:51:13.305Z,6.67
2018-09-13T21:53:42.762Z,6.67
2018-09-13T21:56:11.493Z,6.20
2018-09-13T21:58:40.372Z,6.23
2018-09-13T22:01:09.184Z,6.53
2018-09-13T22:03:37.961Z,6.40
2018-09-13T22:06:06.890Z,6.33
2018-09-13T22:08:35.939Z,6.50
2018-09-13T22:11:05.289Z,7.20
2018-09-13T22:13:34.074Z,6.63
2018-09-13T22:16:03.085Z,6.77
2018-09-13T22:18:32.266Z,6.83
2018-09-13T22:21:01.970Z,6.80
2018-09-13T22:23:30.751Z,6.57
2018-09-13T22:25:59.606Z,6.27
2018-09-13T22:28:28.314Z,7.07
2018-09-13T22:30:57.021Z,7.10
2018-09-13T22:33:25.781Z,6.80
2018-09-13T22:35:54.441Z,7.07
2018-09-13T22:38:24.356Z,6.57
2018-09-13T22:40:54.135Z,6.83
2018-09-13T22:43:23.048Z,7.23
2018-09-13T22:45:51.950Z,6.70
2018-09-13T22:48:20.749Z,6.23
2018-09-13T22:50:49.419Z,7.20
2018-09-13T22:53:18.224Z,7.87
2018-09-13T22:55:47.026Z,8.23
2018-09-13T22:58:15.864Z,7.57
2018-09-13T23:00:54.992Z,7.97
2018-09-13T23:03:24.258Z,7.27
2018-09-13T23:05:53.083Z,7.13
2018-09-13T23:08:21.776Z,7.67
2018-09-13T23:10:50.455Z,7.23
2018-09-13T23:13:19.834Z,7.37
2018-09-13T23:15:48.702Z,7.20
2018-09-13T23:18:17.383Z,7.43
2018-09-13T23:20:46.141Z,7.40
2018-09-13T23:23:14.838Z,6.90
2018-09-13T23:25:43.565Z,7.20
2018-09-13T23:28:12.268Z,7.23
2018-09-13T23:30:40.820Z,7.07
2018-09-13T23:33:09.478Z,7.60
2018-09-13T23:35:38.154Z,6.97
2018-09-13T23:38:06.967Z,7.47
2018-09-13T23:40:35.679Z,7.10
2018-09-13T23:43:04.337Z,7.87
2018-09-13T23:45:33.096Z,7.50
2018-09-13T23:48:02.008Z,7.40
2018-09-13T23:50:30.721Z,6.90
2018-09-13T23:53:00.413Z,6.27
2018-09-13T23:55:29.068Z,6.63
2018-09-13T23:57:57.796Z,6.47
